createdAt,value
2023-11-30T00:00:20.602Z,22.87
2023-11-30T00:02:47.539Z,25.03
2023-11-30T00:05:14.507Z,21.23
2023-11-30T00:07:41.412Z,21.20
2023-11-30T00:10:09.034Z,26.83
2023-11-30T00:12:35.913Z,24.70
2023-11-30T00:15:03.138Z,23.47
2023-11-30T00:17:31.159Z,25.07
2023-11-30T00:19:58.049Z,22.97
2023-11-30T00:22:24.862Z,25.40
2023-11-30T00:24:51.711Z,26.70
2023-11-30T00:27:18.671Z,24.70
2023-11-30T00:29:45.846Z,28.47
2023-11-30T00:32:12.685Z,24.80
2023-11-30T00:34:39.591Z,26.10
2023-11-30T00:37:06.481Z,27.27
2023-11-30T00:39:33.511Z,23.07
2023-11-30T00:42:01.369Z,25.67
2023-11-30T00:44:28.356Z,25.33
2023-11-30T00:46:56.870Z,26.17
2023-11-30T00:49:23.758Z,25.70
2023-11-30T00:51:50.691Z,25.87
2023-11-30T00:54:17.657Z,27.50
2023-11-30T00:56:44.773Z,23.60
2023-11-30T00:59:11.963Z,26.03
2023-11-30T01:01:38.868Z,26.73
2023-11-30T01:04:05.845Z,21.83
2023-11-30T01:06:32.766Z,23.17
2023-11-30T01:08:59.745Z,24.83
2023-11-30T01:11:26.741Z,24.37
2023-11-30T01:13:53.809Z,25.17
2023-11-30T01:16:20.742Z,24.33
2023-11-30T01:18:48.112Z,23.90
2023-11-30T01:21:15.057Z,26.03
2023-11-30T01:23:42.851Z,25.77
2023-11-30T01:26:09.746Z,24.63
2023-11-30T01:28:36.589Z,26.97
2023-11-30T01:31:03.999Z,23.67
2023-11-30T01:33:31.018Z,28.53
2023-11-30T01:35:57.995Z,26.50
2023-11-30T01:38:24.934Z,25.20
2023-11-30T01:40:51.797Z,23.70
2023-11-30T01:43:19.728Z,27.40
2023-11-30T01:45:46.914Z,22.57
2023-11-30T01:48:14.027Z,24.43
2023-11-30T01:50:41.118Z,22.63
2023-11-30T01:53:08.725Z,23.20
2023-11-30T01:55:36.615Z,23.50
2023-11-30T01:58:04.400Z,24.87
2023-11-30T02:00:31.878Z,26.47
2023-11-30T02:02:59.585Z,24.80
2023-11-30T02:05:26.481Z,27.43
2023-11-30T02:07:53.622Z,25.33
2023-11-30T02:10:21.331Z,26.53
2023-11-30T02:12:48.892Z,21.70
2023-11-30T02:15:16.566Z,22.73
2023-11-30T02:17:45.275Z,24.63
2023-11-30T02:20:12.458Z,29.60
2023-11-30T02:22:39.246Z,23.20
2023-11-30T02:25:06.763Z,23.03
2023-11-30T02:27:33.628Z,23.87
2023-11-30T02:30:00.640Z,24.33
2023-11-30T02:32:55.360Z,26.77
2023-11-30T02:35:25.825Z,23.70
2023-11-30T02:37:52.764Z,22.37
2023-11-30T02:40:20.340Z,28.33
2023-11-30T02:42:47.166Z,23.90
2023-11-30T02:45:14.153Z,24.77
2023-11-30T02:47:41.171Z,30.60
2023-11-30T02:50:08.616Z,34.37
2023-11-30T02:52:35.478Z,24.37
2023-11-30T02:55:02.451Z,26.33
2023-11-30T02:57:29.441Z,24.00
2023-11-30T02:59:56.656Z,24.97
2023-11-30T03:02:24.766Z,23.57
2023-11-30T03:04:52.581Z,26.07
2023-11-30T03:07:19.501Z,25.20
2023-11-30T03:09:46.290Z,23.53
2023-11-30T03:12:15.490Z,24.63
2023-11-30T03:14:45.861Z,26.83
2023-11-30T03:17:12.696Z,22.57
2023-11-30T03:19:40.086Z,25.10
2023-11-30T03:22:07.112Z,28.20
2023-11-30T03:24:34.053Z,24.17
2023-11-30T03:27:01.055Z,27.03
2023-11-30T03:29:27.892Z,24.10
2023-11-30T03:31:54.747Z,23.37
2023-11-30T03:34:21.953Z,23.10
2023-11-30T03:36:48.865Z,23.60
2023-11-30T03:39:15.938Z,22.13
2023-11-30T03:41:42.804Z,21.60
2023-11-30T03:44:09.905Z,23.40
2023-11-30T03:46:37.042Z,21.23
2023-11-30T03:49:04.046Z,25.23
2023-11-30T03:51:31.096Z,22.97
2023-11-30T03:53:57.994Z,21.63
2023-11-30T03:56:25.109Z,23.63
2023-11-30T03:58:52.042Z,21.10
2023-11-30T04:01:23.352Z,21.40
2023-11-30T04:03:50.350Z,20.83
2023-11-30T04:06:21.096Z,24.03
2023-11-30T04:08:48.064Z,24.73
2023-11-30T04:11:19.235Z,25.23
2023-11-30T04:13:46.619Z,23.20
2023-11-30T04:16:18.104Z,23.50
2023-11-30T04:18:45.368Z,23.33
2023-11-30T04:21:12.718Z,23.97
2023-11-30T04:23:39.579Z,24.27
2023-11-30T04:26:06.849Z,22.83
2023-11-30T04:28:34.838Z,21.40
2023-11-30T04:31:01.921Z,23.80
2023-11-30T04:33:28.877Z,27.77
2023-11-30T04:35:56.663Z,26.67
2023-11-30T04:38:23.552Z,22.80
2023-11-30T04:40:51.045Z,23.07
2023-11-30T04:43:17.951Z,23.67
2023-11-30T04:45:44.842Z,25.23
2023-11-30T04:48:11.825Z,23.37
2023-11-30T04:50:38.678Z,25.60
2023-11-30T04:53:05.607Z,22.93
2023-11-30T04:55:33.169Z,25.70
2023-11-30T04:58:00.273Z,24.60
2023-11-30T05:00:27.250Z,24.53
2023-11-30T05:02:56.419Z,25.37
2023-11-30T05:05:23.978Z,24.90
2023-11-30T05:07:50.751Z,24.10
2023-11-30T05:10:17.696Z,26.17
2023-11-30T05:12:44.869Z,25.47
2023-11-30T05:15:11.669Z,21.93
2023-11-30T05:17:38.605Z,23.93
2023-11-30T05:20:06.035Z,24.13
2023-11-30T05:22:32.846Z,21.90
2023-11-30T05:24:59.777Z,29.57
2023-11-30T05:27:26.634Z,23.93
2023-11-30T05:29:53.575Z,26.30
2023-11-30T05:32:20.369Z,30.07
2023-11-30T05:34:47.333Z,26.27
2023-11-30T05:37:14.144Z,29.50
2023-11-30T05:39:41.000Z,33.70
2023-11-30T05:42:08.592Z,26.57
2023-11-30T05:44:35.563Z,25.17
2023-11-30T05:47:02.323Z,26.50
2023-11-30T05:49:29.380Z,28.13
2023-11-30T05:51:57.650Z,28.63
2023-11-30T05:54:24.574Z,29.87
2023-11-30T05:56:51.448Z,26.70
2023-11-30T05:59:18.632Z,30.17
2023-11-30T06:01:45.484Z,27.90
2023-11-30T06:04:12.571Z,25.97
2023-11-30T06:06:39.473Z,28.33
2023-11-30T06:09:07.123Z,28.57
2023-11-30T06:11:34.105Z,28.97
2023-11-30T06:14:02.046Z,30.53
2023-11-30T06:16:29.072Z,28.50
2023-11-30T06:18:56.055Z,31.40
2023-11-30T06:21:22.954Z,27.30
2023-11-30T06:23:49.843Z,27.93
2023-11-30T06:26:16.728Z,30.63
2023-11-30T06:28:43.558Z,28.53
2023-11-30T06:31:13.154Z,27.87
2023-11-30T06:33:40.104Z,29.90
2023-11-30T06:36:07.235Z,29.50
2023-11-30T06:38:34.519Z,28.97
2023-11-30T06:41:01.712Z,28.20
2023-11-30T06:43:30.188Z,26.03
2023-11-30T06:45:57.026Z,30.83
2023-11-30T06:48:26.477Z,28.83
2023-11-30T06:50:53.420Z,30.13
2023-11-30T06:53:20.635Z,26.53
2023-11-30T06:55:47.573Z,29.77
2023-11-30T06:58:14.434Z,31.07
2023-11-30T07:00:41.298Z,35.00
2023-11-30T07:03:08.351Z,29.57
2023-11-30T07:05:35.181Z,29.50
2023-11-30T07:08:02.067Z,30.10
2023-11-30T07:10:29.332Z,32.77
2023-11-30T07:12:56.228Z,30.23
2023-11-30T07:15:23.738Z,32.30
2023-11-30T07:17:50.729Z,30.70
2023-11-30T07:20:17.582Z,30.03
2023-11-30T07:22:44.509Z,29.57
2023-11-30T07:25:11.456Z,30.93
2023-11-30T07:27:38.321Z,32.93
2023-11-30T07:30:08.488Z,31.60
2023-11-30T07:32:35.433Z,29.90
2023-11-30T07:35:02.315Z,29.03
2023-11-30T07:37:29.225Z,32.73
2023-11-30T07:39:56.037Z,32.13
2023-11-30T07:42:29.624Z,29.50
2023-11-30T07:45:03.773Z,31.80
2023-11-30T07:47:30.892Z,31.87
2023-11-30T07:49:57.812Z,32.40
2023-11-30T07:52:24.647Z,30.13
2023-11-30T07:54:51.500Z,35.40
2023-11-30T07:57:19.454Z,32.60
2023-11-30T07:59:46.942Z,32.30
2023-11-30T08:02:13.899Z,35.13
2023-11-30T08:04:42.091Z,34.07
2023-11-30T08:07:09.073Z,31.87
2023-11-30T08:09:36.080Z,36.50
2023-11-30T08:12:03.719Z,36.57
2023-11-30T08:14:30.645Z,33.80
2023-11-30T08:16:57.792Z,30.70
2023-11-30T08:19:24.625Z,33.67
2023-11-30T08:21:51.567Z,37.13
2023-11-30T08:24:18.516Z,35.93
2023-11-30T08:26:47.784Z,36.60
2023-11-30T08:29:16.815Z,38.00
2023-11-30T08:31:44.124Z,33.03
2023-11-30T08:34:11.186Z,34.07
2023-11-30T08:36:38.298Z,39.50
2023-11-30T08:39:05.241Z,36.30
2023-11-30T08:41:32.104Z,35.47
2023-11-30T08:43:59.106Z,32.87
2023-11-30T08:46:25.973Z,32.30
2023-11-30T08:48:52.904Z,34.07
2023-11-30T08:51:20.005Z,38.33
2023-11-30T08:53:46.902Z,32.43
2023-11-30T08:56:13.732Z,34.80
2023-11-30T08:58:40.708Z,36.13
2023-11-30T09:01:08.525Z,37.97
2023-11-30T09:03:35.495Z,33.57
2023-11-30T09:06:02.581Z,38.80
2023-11-30T09:08:29.564Z,34.10
2023-11-30T09:10:56.419Z,32.27
2023-11-30T09:13:23.367Z,34.63
2023-11-30T09:15:50.170Z,33.53
2023-11-30T09:18:18.410Z,32.73
2023-11-30T09:20:45.321Z,35.70
2023-11-30T09:23:12.221Z,30.53
2023-11-30T09:25:39.149Z,34.07
2023-11-30T09:28:06.219Z,33.87
2023-11-30T09:30:33.306Z,30.20
2023-11-30T09:33:00.525Z,33.50
2023-11-30T09:35:27.372Z,31.83
2023-11-30T09:37:55.552Z,36.57
2023-11-30T09:40:23.460Z,32.63
2023-11-30T09:42:50.286Z,33.43
2023-11-30T09:45:17.428Z,29.53
2023-11-30T09:47:44.454Z,31.33
2023-11-30T09:50:12.057Z,31.70
2023-11-30T09:52:38.975Z,30.60
2023-11-30T09:55:06.931Z,34.47
2023-11-30T09:57:33.813Z,30.63
2023-11-30T10:00:00.958Z,33.20
2023-11-30T10:02:29.374Z,30.63
2023-11-30T10:04:58.578Z,26.83
2023-11-30T10:07:25.411Z,32.07
2023-11-30T10:09:52.283Z,30.07
2023-11-30T10:12:21.370Z,31.93
2023-11-30T10:14:48.387Z,29.47
2023-11-30T10:17:15.466Z,34.87
2023-11-30T10:19:42.729Z,34.37
2023-11-30T10:22:09.669Z,33.67
2023-11-30T10:24:36.584Z,34.43
2023-11-30T10:27:05.158Z,31.67
2023-11-30T10:29:33.403Z,32.03
2023-11-30T10:32:04.361Z,47.53
2023-11-30T10:34:33.870Z,33.60
2023-11-30T10:37:04.085Z,33.67
2023-11-30T10:39:37.221Z,31.50
2023-11-30T10:42:14.394Z,27.37
2023-11-30T10:44:42.015Z,29.93
2023-11-30T10:47:10.621Z,28.90
2023-11-30T10:49:37.916Z,27.67
2023-11-30T10:52:05.465Z,28.60
2023-11-30T10:54:50.947Z,30.80
2023-11-30T10:57:20.109Z,30.43
2023-11-30T10:59:47.056Z,31.70
2023-11-30T11:02:16.061Z,30.50
2023-11-30T11:04:43.971Z,29.03
2023-11-30T11:07:13.606Z,32.00
2023-11-30T11:09:54.388Z,31.57
2023-11-30T11:12:22.759Z,26.03
2023-11-30T11:14:50.335Z,31.90
2023-11-30T11:17:20.703Z,29.00
2023-11-30T11:19:47.652Z,27.30
2023-11-30T11:22:18.453Z,25.77
2023-11-30T11:24:47.042Z,25.57
2023-11-30T11:27:27.073Z,27.80
2023-11-30T11:29:53.960Z,29.50
2023-11-30T11:32:24.112Z,23.80
2023-11-30T11:34:52.237Z,28.67
2023-11-30T11:37:19.704Z,28.57
2023-11-30T11:39:47.049Z,30.33
2023-11-30T11:42:14.088Z,30.87
2023-11-30T11:44:40.995Z,28.13
2023-11-30T11:47:07.988Z,30.33
2023-11-30T11:49:35.927Z,29.93
2023-11-30T11:52:02.805Z,33.33
2023-11-30T11:54:30.250Z,29.13
2023-11-30T11:56:58.978Z,30.53
2023-11-30T11:59:27.659Z,31.27
2023-11-30T12:01:55.515Z,45.70
2023-11-30T12:04:28.781Z,57.10
2023-11-30T12:06:55.865Z,33.67
2023-11-30T12:09:23.135Z,31.90
2023-11-30T12:11:50.148Z,57.77
2023-11-30T12:14:17.317Z,34.10
2023-11-30T12:16:44.256Z,28.03
2023-11-30T12:19:11.316Z,35.30
2023-11-30T12:21:38.632Z,29.70
2023-11-30T12:24:06.224Z,29.90
2023-11-30T12:26:33.094Z,33.00
2023-11-30T12:28:59.912Z,43.57
2023-11-30T12:31:27.153Z,45.53
2023-11-30T12:33:54.283Z,39.23
2023-11-30T12:36:21.505Z,43.60
2023-11-30T12:38:48.721Z,46.60
2023-11-30T12:41:16.145Z,34.80
2023-11-30T12:43:43.177Z,42.10
2023-11-30T12:46:10.709Z,33.87
2023-11-30T12:48:37.730Z,35.97
2023-11-30T12:51:05.872Z,30.27
2023-11-30T12:53:32.822Z,38.63
2023-11-30T12:55:59.614Z,39.30
2023-11-30T12:58:27.322Z,36.70
2023-11-30T13:00:54.468Z,31.60
2023-11-30T13:03:21.956Z,31.00
2023-11-30T13:05:49.616Z,30.30
2023-11-30T13:08:16.498Z,30.60
2023-11-30T13:10:43.453Z,29.07
2023-11-30T13:13:10.398Z,28.80
2023-11-30T13:15:38.106Z,25.27
2023-11-30T13:18:05.315Z,26.90
2023-11-30T13:20:32.720Z,24.53
2023-11-30T13:22:59.776Z,24.03
2023-11-30T13:25:28.078Z,27.70
2023-11-30T13:27:55.182Z,22.83
2023-11-30T13:30:22.018Z,23.87
2023-11-30T13:32:49.091Z,31.77
2023-11-30T13:35:16.118Z,28.93
2023-11-30T13:37:43.508Z,31.53
2023-11-30T13:40:11.412Z,30.90
2023-11-30T13:42:38.488Z,31.83
2023-11-30T13:45:06.782Z,28.40
2023-11-30T13:47:33.761Z,32.87
2023-11-30T13:50:01.313Z,33.33
2023-11-30T13:52:28.783Z,54.03
2023-11-30T13:54:55.878Z,75.07
2023-11-30T13:57:23.116Z,90.53
2023-11-30T13:59:49.948Z,52.97
2023-11-30T14:02:16.858Z,41.50
2023-11-30T14:04:43.857Z,34.93
2023-11-30T14:07:10.759Z,36.97
2023-11-30T14:09:37.786Z,42.67
2023-11-30T14:12:05.335Z,41.73
2023-11-30T14:14:32.250Z,40.20
2023-11-30T14:16:59.379Z,46.67
2023-11-30T14:19:26.294Z,42.53
2023-11-30T14:21:54.059Z,45.80
2023-11-30T14:24:20.952Z,47.23
2023-11-30T14:26:47.875Z,52.97
2023-11-30T14:29:15.278Z,43.80
2023-11-30T14:31:42.167Z,39.60
2023-11-30T14:34:09.159Z,42.13
2023-11-30T14:36:36.140Z,43.50
2023-11-30T14:39:02.995Z,39.00
2023-11-30T14:41:30.786Z,43.53
2023-11-30T14:43:57.976Z,42.00
2023-11-30T14:46:24.929Z,42.50
2023-11-30T14:48:51.944Z,42.97
2023-11-30T14:51:18.791Z,39.13
2023-11-30T14:53:45.858Z,73.67
2023-11-30T14:56:13.066Z,46.77
2023-11-30T14:58:40.101Z,59.53
2023-11-30T15:01:11.870Z,81.50
2023-11-30T15:03:39.595Z,73.50
2023-11-30T15:06:07.757Z,69.80
2023-11-30T15:08:36.335Z,44.80
2023-11-30T15:11:03.744Z,33.10
2023-11-30T15:13:30.671Z,30.13
2023-11-30T15:15:57.577Z,36.80
2023-11-30T15:18:25.062Z,35.63
2023-11-30T15:20:51.917Z,37.70
2023-11-30T15:23:18.760Z,48.67
2023-11-30T15:25:45.769Z,34.77
2023-11-30T15:28:13.125Z,39.50
2023-11-30T15:30:40.018Z,36.70
2023-11-30T15:33:08.422Z,40.10
2023-11-30T15:35:36.692Z,38.27
2023-11-30T15:38:04.192Z,30.73
2023-11-30T15:40:31.249Z,41.07
2023-11-30T15:42:58.144Z,39.30
2023-11-30T15:45:25.159Z,41.00
2023-11-30T15:47:52.300Z,47.30
2023-11-30T15:50:19.453Z,39.07
2023-11-30T15:52:46.327Z,42.17
2023-11-30T15:55:14.452Z,41.17
2023-11-30T15:57:42.025Z,34.57
2023-11-30T16:00:09.801Z,37.47
2023-11-30T16:02:40.502Z,42.37
2023-11-30T16:05:07.695Z,40.17
2023-11-30T16:07:36.194Z,34.83
2023-11-30T16:10:04.946Z,37.00
2023-11-30T16:12:31.865Z,52.40
2023-11-30T16:14:58.797Z,46.27
2023-11-30T16:17:25.651Z,55.07
2023-11-30T16:19:53.314Z,53.37
2023-11-30T16:22:20.189Z,49.13
2023-11-30T16:24:48.214Z,54.20
2023-11-30T16:27:15.920Z,50.70
2023-11-30T16:29:43.082Z,67.40
2023-11-30T16:32:11.955Z,71.30
2023-11-30T16:34:38.884Z,67.63
2023-11-30T16:37:06.508Z,62.50
2023-11-30T16:39:33.453Z,61.30
2023-11-30T16:42:00.353Z,81.60
2023-11-30T16:44:28.010Z,77.00
2023-11-30T16:46:55.714Z,62.97
2023-11-30T16:49:22.580Z,60.53
2023-11-30T16:51:55.324Z,64.03
2023-11-30T16:54:24.642Z,74.00
2023-11-30T16:56:51.607Z,60.60
2023-11-30T16:59:18.615Z,65.20
2023-11-30T17:01:45.525Z,54.50
2023-11-30T17:04:12.626Z,68.27
2023-11-30T17:06:39.885Z,60.10
2023-11-30T17:09:06.930Z,70.00
2023-11-30T17:11:33.808Z,78.57
2023-11-30T17:14:00.650Z,95.63
2023-11-30T17:16:27.616Z,92.67
2023-11-30T17:18:54.889Z,93.87
2023-11-30T17:21:22.729Z,116.73
2023-11-30T17:23:49.673Z,103.97
2023-11-30T17:26:16.616Z,86.57
2023-11-30T17:28:44.719Z,92.70
2023-11-30T17:31:11.652Z,71.67
2023-11-30T17:33:38.941Z,77.27
2023-11-30T17:36:06.085Z,76.63
2023-11-30T17:38:33.040Z,128.37
2023-11-30T17:40:59.878Z,184.37
2023-11-30T17:43:26.805Z,129.90
2023-11-30T17:45:53.916Z,142.77
2023-11-30T17:48:20.825Z,87.23
2023-11-30T17:50:47.617Z,93.20
2023-11-30T17:53:14.533Z,73.57
2023-11-30T17:55:41.387Z,70.40
2023-11-30T17:58:08.577Z,72.10
2023-11-30T18:00:35.554Z,67.80
2023-11-30T18:03:02.432Z,57.53
2023-11-30T18:05:29.624Z,64.63
2023-11-30T18:07:56.458Z,61.97
2023-11-30T18:10:23.277Z,61.07
2023-11-30T18:12:50.299Z,67.93
2023-11-30T18:15:17.108Z,93.70
2023-11-30T18:17:44.054Z,96.73
2023-11-30T18:20:12.353Z,105.70
2023-11-30T18:22:39.365Z,99.73
2023-11-30T18:25:06.597Z,100.67
2023-11-30T18:27:33.504Z,71.73
2023-11-30T18:30:00.341Z,65.27
2023-11-30T18:32:27.520Z,98.70
2023-11-30T18:34:55.871Z,94.60
2023-11-30T18:37:22.729Z,61.90
2023-11-30T18:39:49.719Z,67.40
2023-11-30T18:42:16.667Z,63.40
2023-11-30T18:44:43.481Z,62.23
2023-11-30T18:47:15.779Z,82.60
2023-11-30T18:49:42.779Z,93.17
2023-11-30T18:52:09.711Z,112.10
2023-11-30T18:54:36.839Z,104.73
2023-11-30T18:57:03.968Z,134.70
2023-11-30T18:59:32.194Z,99.97
2023-11-30T19:01:59.484Z,98.90
2023-11-30T19:04:26.466Z,96.67
2023-11-30T19:06:53.379Z,96.57
2023-11-30T19:09:20.329Z,119.83
2023-11-30T19:11:47.382Z,118.70
2023-11-30T19:14:14.312Z,97.00
2023-11-30T19:16:41.833Z,87.97
2023-11-30T19:19:09.683Z,94.80
2023-11-30T19:21:40.871Z,85.87
2023-11-30T19:24:07.876Z,68.60
2023-11-30T19:26:34.675Z,78.90
2023-11-30T19:29:01.691Z,87.93
2023-11-30T19:31:28.525Z,82.33
2023-11-30T19:33:55.526Z,83.57
2023-11-30T19:36:22.888Z,79.33
2023-11-30T19:38:49.796Z,79.70
2023-11-30T19:41:16.591Z,83.30
2023-11-30T19:43:43.502Z,80.10
2023-11-30T19:46:14.837Z,87.47
2023-11-30T19:48:41.888Z,106.07
2023-11-30T19:51:08.756Z,100.17
2023-11-30T19:53:35.655Z,112.50
2023-11-30T19:56:02.471Z,121.60
2023-11-30T19:58:29.310Z,126.70
2023-11-30T20:00:56.260Z,129.67
2023-11-30T20:03:23.189Z,137.10
2023-11-30T20:05:50.132Z,141.17
2023-11-30T20:08:17.033Z,202.10
2023-11-30T20:10:44.549Z,156.33
2023-11-30T20:13:11.470Z,94.50
2023-11-30T20:15:38.425Z,96.90
2023-11-30T20:18:07.109Z,112.17
2023-11-30T20:20:34.133Z,119.83
2023-11-30T20:23:01.708Z,119.77
2023-11-30T20:25:28.627Z,127.77
2023-11-30T20:27:55.527Z,121.10
2023-11-30T20:30:22.399Z,113.17
2023-11-30T20:32:49.831Z,124.87
2023-11-30T20:35:16.658Z,129.57
2023-11-30T20:37:43.490Z,128.03
2023-11-30T20:40:11.420Z,130.90
2023-11-30T20:42:38.417Z,137.03
2023-11-30T20:45:05.487Z,134.83
2023-11-30T20:47:32.432Z,137.30
2023-11-30T20:50:00.007Z,137.97
2023-11-30T20:52:26.959Z,137.37
2023-11-30T20:54:53.782Z,135.33
2023-11-30T20:57:20.610Z,143.43
2023-11-30T20:59:47.483Z,140.90
2023-11-30T21:13:20.742Z,145.87
2023-11-30T21:15:47.856Z,143.90
2023-11-30T21:18:15.080Z,134.53
2023-11-30T21:20:42.098Z,153.30
2023-11-30T21:23:09.347Z,143.03
2023-11-30T21:25:36.459Z,137.40
2023-11-30T21:28:03.584Z,143.00
2023-11-30T21:30:30.719Z,163.60
2023-11-30T21:32:58.697Z,159.33
2023-11-30T21:35:25.714Z,173.87
2023-11-30T21:37:52.790Z,175.87
2023-11-30T21:40:19.857Z,200.37
2023-11-30T21:42:47.412Z,190.33
2023-11-30T21:45:14.584Z,200.83
2023-11-30T21:47:41.668Z,154.47
2023-11-30T21:50:16.705Z,179.83
2023-11-30T21:52:45.632Z,191.67
2023-11-30T21:55:12.663Z,170.23
2023-11-30T21:57:41.253Z,184.87
2023-11-30T22:00:10.832Z,202.13
2023-11-30T22:02:37.924Z,209.17
2023-11-30T22:05:05.720Z,202.57
2023-11-30T22:07:33.599Z,210.40
2023-11-30T22:10:00.841Z,202.50
2023-11-30T22:12:27.878Z,181.53
2023-11-30T22:14:55.087Z,148.70
2023-11-30T22:17:22.215Z,157.50
2023-11-30T22:19:49.555Z,157.83
2023-11-30T22:22:16.597Z,127.00
2023-11-30T22:24:43.680Z,153.00
2023-11-30T22:27:10.776Z,119.53
2023-11-30T22:29:38.148Z,130.57
2023-11-30T22:32:05.383Z,138.50
2023-11-30T22:34:32.507Z,149.20
2023-11-30T22:36:59.837Z,138.73
2023-11-30T22:39:26.895Z,132.67
2023-11-30T22:41:54.101Z,137.40
2023-11-30T22:44:22.471Z,159.00
2023-11-30T22:46:49.674Z,142.57
2023-11-30T22:49:17.866Z,154.30
2023-11-30T22:51:45.111Z,134.23
2023-11-30T22:54:12.324Z,142.07
2023-11-30T22:56:39.426Z,129.53
2023-11-30T22:59:07.618Z,113.63
2023-11-30T23:01:35.337Z,119.80
2023-11-30T23:04:02.824Z,121.13
2023-11-30T23:06:30.296Z,130.40
2023-11-30T23:08:57.569Z,134.47
2023-11-30T23:11:25.764Z,143.47
2023-11-30T23:13:53.462Z,132.40
2023-11-30T23:16:22.290Z,137.03
2023-11-30T23:18:49.498Z,139.57
2023-11-30T23:21:16.606Z,145.73
2023-11-30T23:23:43.705Z,154.13
2023-11-30T23:26:10.820Z,167.23
2023-11-30T23:28:37.932Z,146.93
2023-11-30T23:31:05.179Z,144.67
2023-11-30T23:33:32.317Z,143.63
2023-11-30T23:35:59.388Z,146.73
2023-11-30T23:38:26.541Z,141.53
2023-11-30T23:40:53.626Z,130.87
2023-11-30T23:43:20.770Z,143.10
2023-11-30T23:45:47.900Z,137.23
2023-11-30T23:48:15.143Z,137.60
2023-11-30T23:50:42.327Z,133.23
2023-11-30T23:53:09.717Z,133.23
2023-11-30T23:55:37.185Z,135.47
2023-11-30T23:58:04.322Z,129.47
